sensor_id;sensor_type;location;lat;lon;timestamp;temperature;humidity
20915;DHT22;10617;52.032;5.298;2023-09-19T00:01:06;15.40;99.90
20915;DHT22;10617;52.032;5.298;2023-09-19T00:05:10;15.40;99.90
20915;DHT22;10617;52.032;5.298;2023-09-19T00:13:49;15.50;99.90
20915;DHT22;10617;52.032;5.298;2023-09-19T00:17:51;15.50;99.90
20915;DHT22;10617;52.032;5.298;2023-09-19T00:21:53;15.60;99.90
20915;DHT22;10617;52.032;5.298;2023-09-19T00:25:58;15.50;99.90
20915;DHT22;10617;52.032;5.298;2023-09-19T00:29:59;15.60;99.90
20915;DHT22;10617;52.032;5.298;2023-09-19T00:34:01;15.60;99.90
20915;DHT22;10617;52.032;5.298;2023-09-19T00:38:05;15.60;99.90
20915;DHT22;10617;52.032;5.298;2023-09-19T00:42:08;15.60;99.90
20915;DHT22;10617;52.032;5.298;2023-09-19T01:01:21;15.60;99.90
20915;DHT22;10617;52.032;5.298;2023-09-19T01:05:23;15.60;99.90
20915;DHT22;10617;52.032;5.298;2023-09-19T01:32:16;15.70;99.90
20915;DHT22;10617;52.032;5.298;2023-09-19T01:36:18;15.70;99.90
20915;DHT22;10617;52.032;5.298;2023-09-19T01:40:20;15.70;99.90
20915;DHT22;10617;52.032;5.298;2023-09-19T01:49:18;15.60;99.90
20915;DHT22;10617;52.032;5.298;2023-09-19T01:53:27;15.50;99.90
20915;DHT22;10617;52.032;5.298;2023-09-19T01:57:30;15.50;99.90
20915;DHT22;10617;52.032;5.298;2023-09-19T02:01:34;15.50;99.90
20915;DHT22;10617;52.032;5.298;2023-09-19T02:05:37;15.40;99.90
20915;DHT22;10617;52.032;5.298;2023-09-19T02:09:38;15.40;99.90
20915;DHT22;10617;52.032;5.298;2023-09-19T02:13:40;15.30;99.90
20915;DHT22;10617;52.032;5.298;2023-09-19T02:17:43;15.30;99.90
20915;DHT22;10617;52.032;5.298;2023-09-19T02:21:45;15.20;99.90
20915;DHT22;10617;52.032;5.298;2023-09-19T02:25:53;15.20;99.90
20915;DHT22;10617;52.032;5.298;2023-09-19T02:29:55;15.10;99.90
20915;DHT22;10617;52.032;5.298;2023-09-19T02:33:57;15.10;99.90
20915;DHT22;10617;52.032;5.298;2023-09-19T02:37:59;15.00;99.90
20915;DHT22;10617;52.032;5.298;2023-09-19T02:42:00;15.00;99.90
20915;DHT22;10617;52.032;5.298;2023-09-19T02:46:02;14.90;99.90
20915;DHT22;10617;52.032;5.298;2023-09-19T02:50:04;14.90;99.90
20915;DHT22;10617;52.032;5.298;2023-09-19T02:54:06;14.90;99.90
20915;DHT22;10617;52.032;5.298;2023-09-19T02:58:09;14.80;99.90
20915;DHT22;10617;52.032;5.298;2023-09-19T03:02:12;14.70;99.90
20915;DHT22;10617;52.032;5.298;2023-09-19T03:06:14;14.70;99.90
20915;DHT22;10617;52.032;5.298;2023-09-19T03:10:16;14.70;99.90
20915;DHT22;10617;52.032;5.298;2023-09-19T03:14:18;14.60;99.90
20915;DHT22;10617;52.032;5.298;2023-09-19T03:18:21;14.60;99.90
20915;DHT22;10617;52.032;5.298;2023-09-19T03:22:26;14.50;99.90
20915;DHT22;10617;52.032;5.298;2023-09-19T03:26:28;14.50;99.90
20915;DHT22;10617;52.032;5.298;2023-09-19T03:30:30;14.50;99.90
20915;DHT22;10617;52.032;5.298;2023-09-19T03:34:31;14.40;99.90
20915;DHT22;10617;52.032;5.298;2023-09-19T03:38:33;14.40;99.90
20915;DHT22;10617;52.032;5.298;2023-09-19T03:42:39;14.30;99.90
20915;DHT22;10617;52.032;5.298;2023-09-19T03:46:40;14.20;99.90
20915;DHT22;10617;52.032;5.298;2023-09-19T03:50:42;14.20;99.90
20915;DHT22;10617;52.032;5.298;2023-09-19T03:54:45;14.20;99.90
20915;DHT22;10617;52.032;5.298;2023-09-19T03:59:05;14.20;99.90
20915;DHT22;10617;52.032;5.298;2023-09-19T04:03:07;14.20;99.90
20915;DHT22;10617;52.032;5.298;2023-09-19T04:07:09;14.10;99.90
20915;DHT22;10617;52.032;5.298;2023-09-19T04:11:11;14.00;99.90
20915;DHT22;10617;52.032;5.298;2023-09-19T04:15:13;14.00;99.90
20915;DHT22;10617;52.032;5.298;2023-09-19T04:19:14;14.00;99.90
20915;DHT22;10617;52.032;5.298;2023-09-19T04:23:16;14.00;99.90
20915;DHT22;10617;52.032;5.298;2023-09-19T04:27:18;14.10;99.90
20915;DHT22;10617;52.032;5.298;2023-09-19T04:31:22;14.10;99.90
20915;DHT22;10617;52.032;5.298;2023-09-19T04:35:24;14.10;99.90
20915;DHT22;10617;52.032;5.298;2023-09-19T04:39:26;14.10;99.90
20915;DHT22;10617;52.032;5.298;2023-09-19T04:43:29;14.20;99.90
20915;DHT22;10617;52.032;5.298;2023-09-19T04:47:30;14.20;99.90
20915;DHT22;10617;52.032;5.298;2023-09-19T04:51:32;14.20;99.90
20915;DHT22;10617;52.032;5.298;2023-09-19T04:55:35;14.20;99.90
20915;DHT22;10617;52.032;5.298;2023-09-19T04:59:37;14.20;99.90
20915;DHT22;10617;52.032;5.298;2023-09-19T05:03:39;14.20;99.90
20915;DHT22;10617;52.032;5.298;2023-09-19T05:07:41;14.20;99.90
20915;DHT22;10617;52.032;5.298;2023-09-19T05:11:43;14.20;99.90
20915;DHT22;10617;52.032;5.298;2023-09-19T05:15:45;14.20;99.90
20915;DHT22;10617;52.032;5.298;2023-09-19T05:19:46;14.10;99.90
20915;DHT22;10617;52.032;5.298;2023-09-19T05:23:48;14.10;99.90
20915;DHT22;10617;52.032;5.298;2023-09-19T05:27:53;14.20;99.90
20915;DHT22;10617;52.032;5.298;2023-09-19T05:31:54;14.20;99.90
20915;DHT22;10617;52.032;5.298;2023-09-19T05:35:56;14.20;99.90
20915;DHT22;10617;52.032;5.298;2023-09-19T05:39:58;14.20;99.90
20915;DHT22;10617;52.032;5.298;2023-09-19T05:43:59;14.30;99.90
20915;DHT22;10617;52.032;5.298;2023-09-19T05:48:11;14.30;99.90
20915;DHT22;10617;52.032;5.298;2023-09-19T05:52:14;14.30;99.90
20915;DHT22;10617;52.032;5.298;2023-09-19T05:56:16;14.30;99.90
20915;DHT22;10617;52.032;5.298;2023-09-19T06:00:23;14.30;99.90
20915;DHT22;10617;52.032;5.298;2023-09-19T06:04:25;14.30;99.90
20915;DHT22;10617;52.032;5.298;2023-09-19T06:08:27;14.40;99.90
20915;DHT22;10617;52.032;5.298;2023-09-19T06:12:29;14.30;99.90
20915;DHT22;10617;52.032;5.298;2023-09-19T06:16:32;14.30;99.90
20915;DHT22;10617;52.032;5.298;2023-09-19T06:20:33;14.30;99.90
20915;DHT22;10617;52.032;5.298;2023-09-19T06:24:37;14.30;99.90
20915;DHT22;10617;52.032;5.298;2023-09-19T06:28:38;14.30;99.90
20915;DHT22;10617;52.032;5.298;2023-09-19T06:32:40;14.30;99.90
20915;DHT22;10617;52.032;5.298;2023-09-19T06:36:45;14.40;99.90
20915;DHT22;10617;52.032;5.298;2023-09-19T06:40:47;14.40;99.90
20915;DHT22;10617;52.032;5.298;2023-09-19T06:44:49;14.40;99.90
20915;DHT22;10617;52.032;5.298;2023-09-19T06:48:51;14.50;99.90
20915;DHT22;10617;52.032;5.298;2023-09-19T06:52:54;14.50;99.90
20915;DHT22;10617;52.032;5.298;2023-09-19T06:56:57;14.60;99.90
20915;DHT22;10617;52.032;5.298;2023-09-19T07:01:00;14.60;99.90
20915;DHT22;10617;52.032;5.298;2023-09-19T07:05:01;14.60;99.90
20915;DHT22;10617;52.032;5.298;2023-09-19T07:09:03;14.70;99.90
20915;DHT22;10617;52.032;5.298;2023-09-19T07:13:06;14.80;99.90
20915;DHT22;10617;52.032;5.298;2023-09-19T07:17:10;14.90;99.90
20915;DHT22;10617;52.032;5.298;2023-09-19T07:21:13;15.00;99.90
20915;DHT22;10617;52.032;5.298;2023-09-19T07:25:17;15.00;99.90
20915;DHT22;10617;52.032;5.298;2023-09-19T07:29:19;15.10;99.90
20915;DHT22;10617;52.032;5.298;2023-09-19T07:33:21;15.10;99.90
20915;DHT22;10617;52.032;5.298;2023-09-19T07:37:22;15.20;99.90
20915;DHT22;10617;52.032;5.298;2023-09-19T07:41:27;15.20;99.90
20915;DHT22;10617;52.032;5.298;2023-09-19T07:45:32;15.30;99.90
20915;DHT22;10617;52.032;5.298;2023-09-19T07:49:33;15.40;99.90
20915;DHT22;10617;52.032;5.298;2023-09-19T07:53:35;15.50;99.90
20915;DHT22;10617;52.032;5.298;2023-09-19T07:57:37;15.50;99.90
20915;DHT22;10617;52.032;5.298;2023-09-19T08:01:39;15.60;99.90
20915;DHT22;10617;52.032;5.298;2023-09-19T08:05:43;15.60;99.90
20915;DHT22;10617;52.032;5.298;2023-09-19T08:09:45;15.70;99.90
20915;DHT22;10617;52.032;5.298;2023-09-19T08:13:48;15.70;99.90
20915;DHT22;10617;52.032;5.298;2023-09-19T08:17:50;15.80;99.90
20915;DHT22;10617;52.032;5.298;2023-09-19T08:21:52;15.80;99.90
20915;DHT22;10617;52.032;5.298;2023-09-19T08:25:57;15.90;99.90
20915;DHT22;10617;52.032;5.298;2023-09-19T08:29:59;16.00;99.90
20915;DHT22;10617;52.032;5.298;2023-09-19T08:34:01;16.10;99.90
20915;DHT22;10617;52.032;5.298;2023-09-19T08:38:03;16.10;99.90
20915;DHT22;10617;52.032;5.298;2023-09-19T08:42:06;16.10;99.90
20915;DHT22;10617;52.032;5.298;2023-09-19T08:46:10;16.20;99.90
20915;DHT22;10617;52.032;5.298;2023-09-19T08:50:20;16.20;99.90
20915;DHT22;10617;52.032;5.298;2023-09-19T08:54:25;16.30;99.90
20915;DHT22;10617;52.032;5.298;2023-09-19T08:58:31;16.40;99.90
20915;DHT22;10617;52.032;5.298;2023-09-19T09:02:36;16.50;99.90
20915;DHT22;10617;52.032;5.298;2023-09-19T09:06:38;16.50;99.90
20915;DHT22;10617;52.032;5.298;2023-09-19T09:10:41;16.50;99.90
20915;DHT22;10617;52.032;5.298;2023-09-19T09:14:44;16.60;99.90
20915;DHT22;10617;52.032;5.298;2023-09-19T09:18:46;16.60;99.90
20915;DHT22;10617;52.032;5.298;2023-09-19T09:22:54;16.60;99.90
20915;DHT22;10617;52.032;5.298;2023-09-19T09:26:57;16.70;99.90
20915;DHT22;10617;52.032;5.298;2023-09-19T09:30:59;16.70;99.90
20915;DHT22;10617;52.032;5.298;2023-09-19T09:35:07;16.70;99.90
20915;DHT22;10617;52.032;5.298;2023-09-19T09:39:11;16.80;99.90
20915;DHT22;10617;52.032;5.298;2023-09-19T09:43:28;17.00;99.90
20915;DHT22;10617;52.032;5.298;2023-09-19T09:47:43;17.20;99.90
20915;DHT22;10617;52.032;5.298;2023-09-19T09:52:01;17.30;99.90
20915;DHT22;10617;52.032;5.298;2023-09-19T09:56:08;17.40;99.90
20915;DHT22;10617;52.032;5.298;2023-09-19T10:00:11;17.40;99.90
20915;DHT22;10617;52.032;5.298;2023-09-19T10:04:15;17.40;99.90
20915;DHT22;10617;52.032;5.298;2023-09-19T10:08:29;17.50;99.90
20915;DHT22;10617;52.032;5.298;2023-09-19T10:12:32;17.70;99.90
20915;DHT22;10617;52.032;5.298;2023-09-19T10:16:36;17.70;99.90
20915;DHT22;10617;52.032;5.298;2023-09-19T10:20:41;17.60;99.90
20915;DHT22;10617;52.032;5.298;2023-09-19T10:24:46;17.50;99.90
20915;DHT22;10617;52.032;5.298;2023-09-19T10:29:01;17.50;99.90
20915;DHT22;10617;52.032;5.298;2023-09-19T10:33:04;17.60;99.90
20915;DHT22;10617;52.032;5.298;2023-09-19T10:37:07;17.70;99.90
20915;DHT22;10617;52.032;5.298;2023-09-19T10:41:10;17.70;99.90
20915;DHT22;10617;52.032;5.298;2023-09-19T10:45:15;17.90;99.90
20915;DHT22;10617;52.032;5.298;2023-09-19T10:49:21;17.90;99.90
20915;DHT22;10617;52.032;5.298;2023-09-19T10:53:24;17.90;99.90
20915;DHT22;10617;52.032;5.298;2023-09-19T10:57:25;18.00;99.90
20915;DHT22;10617;52.032;5.298;2023-09-19T11:05:43;18.00;99.90
20915;DHT22;10617;52.032;5.298;2023-09-19T11:10:01;18.10;99.90
20915;DHT22;10617;52.032;5.298;2023-09-19T11:27:08;18.40;99.90
20915;DHT22;10617;52.032;5.298;2023-09-19T11:35:58;18.60;99.90
20915;DHT22;10617;52.032;5.298;2023-09-19T11:40:08;18.50;99.90
20915;DHT22;10617;52.032;5.298;2023-09-19T11:48:27;18.60;99.90
20915;DHT22;10617;52.032;5.298;2023-09-19T11:52:30;18.70;99.90
20915;DHT22;10617;52.032;5.298;2023-09-19T11:56:38;18.80;99.90
20915;DHT22;10617;52.032;5.298;2023-09-19T12:00:42;18.90;99.90
20915;DHT22;10617;52.032;5.298;2023-09-19T12:04:46;18.80;99.90
20915;DHT22;10617;52.032;5.298;2023-09-19T12:08:51;18.70;99.90
20915;DHT22;10617;52.032;5.298;2023-09-19T12:12:55;18.70;99.90
20915;DHT22;10617;52.032;5.298;2023-09-19T12:16:58;18.70;99.90
20915;DHT22;10617;52.032;5.298;2023-09-19T12:21:02;18.70;99.90
20915;DHT22;10617;52.032;5.298;2023-09-19T12:25:07;18.80;99.90
20915;DHT22;10617;52.032;5.298;2023-09-19T12:29:13;18.70;99.90
20915;DHT22;10617;52.032;5.298;2023-09-19T12:33:16;18.70;99.90
20915;DHT22;10617;52.032;5.298;2023-09-19T12:37:20;18.70;99.90
20915;DHT22;10617;52.032;5.298;2023-09-19T12:41:29;18.70;99.90
20915;DHT22;10617;52.032;5.298;2023-09-19T12:45:30;18.70;99.90
20915;DHT22;10617;52.032;5.298;2023-09-19T12:49:32;18.60;99.90
20915;DHT22;10617;52.032;5.298;2023-09-19T12:53:35;18.60;99.90
20915;DHT22;10617;52.032;5.298;2023-09-19T12:57:42;18.60;99.90
20915;DHT22;10617;52.032;5.298;2023-09-19T13:01:45;18.60;99.90
20915;DHT22;10617;52.032;5.298;2023-09-19T13:05:50;18.60;99.90
20915;DHT22;10617;52.032;5.298;2023-09-19T13:10:04;18.60;99.90
20915;DHT22;10617;52.032;5.298;2023-09-19T13:18:14;18.70;99.90
20915;DHT22;10617;52.032;5.298;2023-09-19T13:26:51;18.60;99.90
20915;DHT22;10617;52.032;5.298;2023-09-19T13:30:53;18.60;99.90
20915;DHT22;10617;52.032;5.298;2023-09-19T13:34:56;18.60;99.90
20915;DHT22;10617;52.032;5.298;2023-09-19T13:38:57;18.70;99.90
20915;DHT22;10617;52.032;5.298;2023-09-19T13:42:59;18.70;99.90
20915;DHT22;10617;52.032;5.298;2023-09-19T13:47:01;18.90;99.90
20915;DHT22;10617;52.032;5.298;2023-09-19T13:51:04;19.00;99.90
20915;DHT22;10617;52.032;5.298;2023-09-19T13:55:06;19.00;99.90
20915;DHT22;10617;52.032;5.298;2023-09-19T13:59:08;19.00;99.90
20915;DHT22;10617;52.032;5.298;2023-09-19T14:03:10;19.00;99.90
20915;DHT22;10617;52.032;5.298;2023-09-19T14:07:12;18.90;99.90
20915;DHT22;10617;52.032;5.298;2023-09-19T14:11:16;18.90;99.90
20915;DHT22;10617;52.032;5.298;2023-09-19T14:15:18;18.90;99.90
20915;DHT22;10617;52.032;5.298;2023-09-19T14:19:19;18.90;99.90
20915;DHT22;10617;52.032;5.298;2023-09-19T14:23:21;18.90;99.90
20915;DHT22;10617;52.032;5.298;2023-09-19T14:27:24;18.90;99.90
20915;DHT22;10617;52.032;5.298;2023-09-19T14:31:26;18.90;99.90
20915;DHT22;10617;52.032;5.298;2023-09-19T14:35:29;18.90;99.90
20915;DHT22;10617;52.032;5.298;2023-09-19T14:39:31;18.90;99.90
20915;DHT22;10617;52.032;5.298;2023-09-19T14:43:32;18.90;99.90
20915;DHT22;10617;52.032;5.298;2023-09-19T14:47:34;18.90;99.90
20915;DHT22;10617;52.032;5.298;2023-09-19T14:51:37;18.90;99.90
20915;DHT22;10617;52.032;5.298;2023-09-19T14:55:41;18.80;99.90
20915;DHT22;10617;52.032;5.298;2023-09-19T14:59:43;18.80;99.90
20915;DHT22;10617;52.032;5.298;2023-09-19T15:03:44;18.80;99.90
20915;DHT22;10617;52.032;5.298;2023-09-19T15:07:48;18.80;99.90
20915;DHT22;10617;52.032;5.298;2023-09-19T15:11:49;18.80;99.90
20915;DHT22;10617;52.032;5.298;2023-09-19T15:15:51;18.80;99.90
20915;DHT22;10617;52.032;5.298;2023-09-19T15:24:56;18.80;99.90
20915;DHT22;10617;52.032;5.298;2023-09-19T15:28:57;18.80;99.90
20915;DHT22;10617;52.032;5.298;2023-09-19T15:32:59;18.70;99.90
20915;DHT22;10617;52.032;5.298;2023-09-19T15:37:01;18.70;99.90
20915;DHT22;10617;52.032;5.298;2023-09-19T15:41:03;18.70;99.90
20915;DHT22;10617;52.032;5.298;2023-09-19T15:45:05;18.70;99.90
20915;DHT22;10617;52.032;5.298;2023-09-19T15:49:07;18.80;99.90
20915;DHT22;10617;52.032;5.298;2023-09-19T15:58:12;18.80;99.90
20915;DHT22;10617;52.032;5.298;2023-09-19T16:02:13;18.80;99.90
20915;DHT22;10617;52.032;5.298;2023-09-19T16:06:16;18.70;99.90
20915;DHT22;10617;52.032;5.298;2023-09-19T16:10:19;18.70;99.90
20915;DHT22;10617;52.032;5.298;2023-09-19T16:14:22;18.70;99.90
20915;DHT22;10617;52.032;5.298;2023-09-19T16:18:23;18.70;99.90
20915;DHT22;10617;52.032;5.298;2023-09-19T16:22:25;18.70;99.90
20915;DHT22;10617;52.032;5.298;2023-09-19T16:26:28;18.70;99.90
20915;DHT22;10617;52.032;5.298;2023-09-19T16:30:33;18.70;99.90
20915;DHT22;10617;52.032;5.298;2023-09-19T16:34:35;18.70;99.90
20915;DHT22;10617;52.032;5.298;2023-09-19T16:38:37;18.70;99.90
20915;DHT22;10617;52.032;5.298;2023-09-19T16:42:39;18.80;99.90
20915;DHT22;10617;52.032;5.298;2023-09-19T16:46:42;18.80;99.90
20915;DHT22;10617;52.032;5.298;2023-09-19T16:50:45;18.80;99.90
20915;DHT22;10617;52.032;5.298;2023-09-19T16:54:47;18.60;99.90
20915;DHT22;10617;52.032;5.298;2023-09-19T16:58:49;18.60;99.90
20915;DHT22;10617;52.032;5.298;2023-09-19T17:02:53;18.60;99.90
20915;DHT22;10617;52.032;5.298;2023-09-19T17:06:56;18.60;99.90
20915;DHT22;10617;52.032;5.298;2023-09-19T17:10:59;18.60;99.90
20915;DHT22;10617;52.032;5.298;2023-09-19T17:15:01;18.60;99.90
20915;DHT22;10617;52.032;5.298;2023-09-19T17:19:03;18.60;99.90
20915;DHT22;10617;52.032;5.298;2023-09-19T17:23:09;18.70;99.90
20915;DHT22;10617;52.032;5.298;2023-09-19T17:27:11;18.60;99.90
20915;DHT22;10617;52.032;5.298;2023-09-19T17:31:14;18.60;99.90
20915;DHT22;10617;52.032;5.298;2023-09-19T17:35:20;18.60;99.90
20915;DHT22;10617;52.032;5.298;2023-09-19T17:39:22;18.50;99.90
20915;DHT22;10617;52.032;5.298;2023-09-19T17:43:23;18.50;99.90
20915;DHT22;10617;52.032;5.298;2023-09-19T17:47:25;18.40;99.90
20915;DHT22;10617;52.032;5.298;2023-09-19T17:51:27;18.30;99.90
20915;DHT22;10617;52.032;5.298;2023-09-19T17:55:29;18.20;99.90
20915;DHT22;10617;52.032;5.298;2023-09-19T17:59:30;18.10;99.90
20915;DHT22;10617;52.032;5.298;2023-09-19T18:03:32;18.00;99.90
20915;DHT22;10617;52.032;5.298;2023-09-19T18:07:34;17.90;99.90
20915;DHT22;10617;52.032;5.298;2023-09-19T18:11:35;17.90;99.90
20915;DHT22;10617;52.032;5.298;2023-09-19T18:15:37;17.90;99.90
20915;DHT22;10617;52.032;5.298;2023-09-19T18:19:39;17.80;99.90
20915;DHT22;10617;52.032;5.298;2023-09-19T18:23:41;17.80;99.90
20915;DHT22;10617;52.032;5.298;2023-09-19T18:27:43;17.70;99.90
20915;DHT22;10617;52.032;5.298;2023-09-19T18:31:45;17.60;99.90
20915;DHT22;10617;52.032;5.298;2023-09-19T18:35:47;17.50;99.90
20915;DHT22;10617;52.032;5.298;2023-09-19T18:39:48;17.40;99.90
20915;DHT22;10617;52.032;5.298;2023-09-19T18:43:52;17.40;99.90
20915;DHT22;10617;52.032;5.298;2023-09-19T18:47:54;17.40;99.90
20915;DHT22;10617;52.032;5.298;2023-09-19T18:51:55;17.40;99.90
20915;DHT22;10617;52.032;5.298;2023-09-19T18:56:10;17.30;99.90
20915;DHT22;10617;52.032;5.298;2023-09-19T19:00:15;17.30;99.90
20915;DHT22;10617;52.032;5.298;2023-09-19T19:04:17;17.30;99.90
20915;DHT22;10617;52.032;5.298;2023-09-19T19:08:20;17.30;99.90
20915;DHT22;10617;52.032;5.298;2023-09-19T19:12:21;17.30;99.90
20915;DHT22;10617;52.032;5.298;2023-09-19T19:16:24;17.30;99.90
20915;DHT22;10617;52.032;5.298;2023-09-19T19:20:28;17.30;99.90
20915;DHT22;10617;52.032;5.298;2023-09-19T19:24:30;17.30;99.90
20915;DHT22;10617;52.032;5.298;2023-09-19T19:28:31;17.30;99.90
20915;DHT22;10617;52.032;5.298;2023-09-19T19:32:33;17.30;99.90
20915;DHT22;10617;52.032;5.298;2023-09-19T19:36:35;17.30;99.90
20915;DHT22;10617;52.032;5.298;2023-09-19T19:40:37;17.30;99.90
20915;DHT22;10617;52.032;5.298;2023-09-19T19:44:38;17.30;99.90
20915;DHT22;10617;52.032;5.298;2023-09-19T19:48:40;17.30;99.90
20915;DHT22;10617;52.032;5.298;2023-09-19T19:52:43;17.30;99.90
20915;DHT22;10617;52.032;5.298;2023-09-19T19:56:45;17.30;99.90
20915;DHT22;10617;52.032;5.298;2023-09-19T20:00:48;17.30;99.90
20915;DHT22;10617;52.032;5.298;2023-09-19T20:04:51;17.30;99.90
20915;DHT22;10617;52.032;5.298;2023-09-19T20:08:53;17.30;99.90
20915;DHT22;10617;52.032;5.298;2023-09-19T20:12:54;17.40;99.90
20915;DHT22;10617;52.032;5.298;2023-09-19T20:16:57;17.40;99.90
20915;DHT22;10617;52.032;5.298;2023-09-19T20:21:05;17.40;99.90
20915;DHT22;10617;52.032;5.298;2023-09-19T20:25:12;17.40;99.90
20915;DHT22;10617;52.032;5.298;2023-09-19T20:34:27;17.50;99.90
20915;DHT22;10617;52.032;5.298;2023-09-19T20:58:43;17.60;99.90
20915;DHT22;10617;52.032;5.298;2023-09-19T21:02:46;17.60;99.90
20915;DHT22;10617;52.032;5.298;2023-09-19T21:06:49;17.60;99.90
20915;DHT22;10617;52.032;5.298;2023-09-19T21:10:50;17.60;99.90
20915;DHT22;10617;52.032;5.298;2023-09-19T21:14:52;17.60;99.90
20915;DHT22;10617;52.032;5.298;2023-09-19T21:18:54;17.60;99.90
20915;DHT22;10617;52.032;5.298;2023-09-19T21:22:56;17.60;99.90
20915;DHT22;10617;52.032;5.298;2023-09-19T21:27:01;17.60;99.90
20915;DHT22;10617;52.032;5.298;2023-09-19T21:31:07;17.60;99.90
20915;DHT22;10617;52.032;5.298;2023-09-19T21:35:10;17.60;99.90
20915;DHT22;10617;52.032;5.298;2023-09-19T21:39:12;17.60;99.90
20915;DHT22;10617;52.032;5.298;2023-09-19T21:43:14;17.60;99.90
20915;DHT22;10617;52.032;5.298;2023-09-19T21:47:16;17.60;99.90
20915;DHT22;10617;52.032;5.298;2023-09-19T21:51:17;17.60;99.90
20915;DHT22;10617;52.032;5.298;2023-09-19T21:55:19;17.60;99.90
20915;DHT22;10617;52.032;5.298;2023-09-19T21:59:21;17.60;99.90
20915;DHT22;10617;52.032;5.298;2023-09-19T22:03:24;17.60;99.90
20915;DHT22;10617;52.032;5.298;2023-09-19T22:07:26;17.60;99.90
20915;DHT22;10617;52.032;5.298;2023-09-19T22:11:28;17.60;99.90
20915;DHT22;10617;52.032;5.298;2023-09-19T22:15:32;17.60;99.90
20915;DHT22;10617;52.032;5.298;2023-09-19T22:19:33;17.60;99.90
20915;DHT22;10617;52.032;5.298;2023-09-19T22:23:40;17.70;99.90
20915;DHT22;10617;52.032;5.298;2023-09-19T22:27:46;17.70;99.90
20915;DHT22;10617;52.032;5.298;2023-09-19T22:31:48;17.70;99.90
20915;DHT22;10617;52.032;5.298;2023-09-19T22:35:51;17.80;99.90
20915;DHT22;10617;52.032;5.298;2023-09-19T22:39:57;17.80;99.90
20915;DHT22;10617;52.032;5.298;2023-09-19T22:43:58;17.90;99.90
20915;DHT22;10617;52.032;5.298;2023-09-19T22:48:01;17.90;99.90
20915;DHT22;10617;52.032;5.298;2023-09-19T22:52:05;17.90;99.90
20915;DHT22;10617;52.032;5.298;2023-09-19T22:56:10;18.00;99.90
20915;DHT22;10617;52.032;5.298;2023-09-19T23:00:12;18.00;99.90
20915;DHT22;10617;52.032;5.298;2023-09-19T23:04:16;18.00;99.90
20915;DHT22;10617;52.032;5.298;2023-09-19T23:08:19;18.00;99.90
20915;DHT22;10617;52.032;5.298;2023-09-19T23:12:20;18.00;99.90
20915;DHT22;10617;52.032;5.298;2023-09-19T23:16:24;18.00;99.90
20915;DHT22;10617;52.032;5.298;2023-09-19T23:20:31;18.00;99.90
20915;DHT22;10617;52.032;5.298;2023-09-19T23:24:40;18.00;99.90
20915;DHT22;10617;52.032;5.298;2023-09-19T23:28:43;18.00;99.90
20915;DHT22;10617;52.032;5.298;2023-09-19T23:32:45;18.10;99.90
20915;DHT22;10617;52.032;5.298;2023-09-19T23:36:46;18.10;99.90
20915;DHT22;10617;52.032;5.298;2023-09-19T23:40:48;18.10;99.90
20915;DHT22;10617;52.032;5.298;2023-09-19T23:44:52;18.10;99.90
20915;DHT22;10617;52.032;5.298;2023-09-19T23:48:56;18.10;99.90
20915;DHT22;10617;52.032;5.298;2023-09-19T23:52:58;18.10;99.90
20915;DHT22;10617;52.032;5.298;2023-09-19T23:57:02;18.10;99.90
